sensor_id;sensor_type;location;lat;lon;timestamp;P1;durP1;ratioP1;P2;durP2;ratioP2
40471;SDS011;26174;42.908;23.800;2023-06-14T00:01:23;4.18;;;1.00;;
40471;SDS011;26174;42.908;23.800;2023-06-14T00:03:50;0.22;;;0.22;;
40471;SDS011;26174;42.908;23.800;2023-06-14T00:06:15;0.20;;;0.10;;
40471;SDS011;26174;42.908;23.800;2023-06-14T00:08:42;0.60;;;0.60;;
40471;SDS011;26174;42.908;23.800;2023-06-14T00:11:08;0.20;;;0.20;;
40471;SDS011;26174;42.908;23.800;2023-06-14T00:13:33;0.08;;;0.08;;
40471;SDS011;26174;42.908;23.800;2023-06-14T00:15:59;0.28;;;0.28;;
40471;SDS011;26174;42.908;23.800;2023-06-14T00:18:24;0.00;;;0.00;;
40471;SDS011;26174;42.908;23.800;2023-06-14T00:20:50;0.13;;;0.13;;
40471;SDS011;26174;42.908;23.800;2023-06-14T00:23:16;0.22;;;0.20;;
40471;SDS011;26174;42.908;23.800;2023-06-14T00:25:42;0.30;;;0.30;;
40471;SDS011;26174;42.908;23.800;2023-06-14T00:28:07;1.10;;;0.43;;
40471;SDS011;26174;42.908;23.800;2023-06-14T00:30:33;0.80;;;0.65;;
40471;SDS011;26174;42.908;23.800;2023-06-14T00:32:58;0.40;;;0.40;;
40471;SDS011;26174;42.908;23.800;2023-06-14T00:35:24;0.57;;;0.28;;
40471;SDS011;26174;42.908;23.800;2023-06-14T00:37:50;0.70;;;0.43;;
40471;SDS011;26174;42.908;23.800;2023-06-14T00:40:16;0.43;;;0.30;;
40471;SDS011;26174;42.908;23.800;2023-06-14T00:42:41;0.20;;;0.20;;
40471;SDS011;26174;42.908;23.800;2023-06-14T00:45:07;1.00;;;0.70;;
40471;SDS011;26174;42.908;23.800;2023-06-14T00:47:33;1.25;;;0.75;;
40471;SDS011;26174;42.908;23.800;2023-06-14T00:50:00;0.40;;;0.40;;
40471;SDS011;26174;42.908;23.800;2023-06-14T00:52:25;1.00;;;0.75;;
40471;SDS011;26174;42.908;23.800;2023-06-14T00:54:51;0.25;;;0.25;;
40471;SDS011;26174;42.908;23.800;2023-06-14T00:57:16;0.30;;;0.30;;
40471;SDS011;26174;42.908;23.800;2023-06-14T01:02:09;0.20;;;0.20;;
40471;SDS011;26174;42.908;23.800;2023-06-14T01:04:35;2.05;;;1.23;;
40471;SDS011;26174;42.908;23.800;2023-06-14T01:13:03;0.57;;;0.38;;
40471;SDS011;26174;42.908;23.800;2023-06-14T01:15:32;0.30;;;0.30;;
40471;SDS011;26174;42.908;23.800;2023-06-14T01:17:59;0.35;;;0.35;;
40471;SDS011;26174;42.908;23.800;2023-06-14T01:20:29;2.60;;;0.40;;
40471;SDS011;26174;42.908;23.800;2023-06-14T01:22:55;0.22;;;0.22;;
40471;SDS011;26174;42.908;23.800;2023-06-14T01:25:21;0.50;;;0.50;;
40471;SDS011;26174;42.908;23.800;2023-06-14T01:27:58;0.82;;;0.52;;
40471;SDS011;26174;42.908;23.800;2023-06-14T01:30:25;0.50;;;0.50;;
40471;SDS011;26174;42.908;23.800;2023-06-14T01:32:51;0.30;;;0.28;;
40471;SDS011;26174;42.908;23.800;2023-06-14T01:35:17;0.20;;;0.20;;
40471;SDS011;26174;42.908;23.800;2023-06-14T01:37:43;0.63;;;0.63;;
40471;SDS011;26174;42.908;23.800;2023-06-14T01:40:09;1.13;;;0.45;;
40471;SDS011;26174;42.908;23.800;2023-06-14T01:42:38;0.17;;;0.17;;
40471;SDS011;26174;42.908;23.800;2023-06-14T01:45:04;0.52;;;0.45;;
40471;SDS011;26174;42.908;23.800;2023-06-14T01:47:31;0.30;;;0.30;;
40471;SDS011;26174;42.908;23.800;2023-06-14T01:49:57;2.65;;;1.35;;
40471;SDS011;26174;42.908;23.800;2023-06-14T01:52:22;0.52;;;0.52;;
40471;SDS011;26174;42.908;23.800;2023-06-14T01:54:49;0.47;;;0.25;;
40471;SDS011;26174;42.908;23.800;2023-06-14T01:57:15;0.32;;;0.32;;
40471;SDS011;26174;42.908;23.800;2023-06-14T01:59:41;9.52;;;1.95;;
40471;SDS011;26174;42.908;23.800;2023-06-14T02:02:06;0.55;;;0.55;;
40471;SDS011;26174;42.908;23.800;2023-06-14T02:04:32;0.43;;;0.43;;
40471;SDS011;26174;42.908;23.800;2023-06-14T02:06:58;0.25;;;0.25;;
40471;SDS011;26174;42.908;23.800;2023-06-14T02:09:24;2.45;;;0.30;;
40471;SDS011;26174;42.908;23.800;2023-06-14T02:11:50;1.60;;;0.60;;
40471;SDS011;26174;42.908;23.800;2023-06-14T02:14:15;1.10;;;0.50;;
40471;SDS011;26174;42.908;23.800;2023-06-14T02:16:42;0.40;;;0.40;;
40471;SDS011;26174;42.908;23.800;2023-06-14T02:19:14;2.08;;;0.60;;
40471;SDS011;26174;42.908;23.800;2023-06-14T02:21:40;1.98;;;0.73;;
40471;SDS011;26174;42.908;23.800;2023-06-14T02:24:06;0.47;;;0.47;;
40471;SDS011;26174;42.908;23.800;2023-06-14T02:26:31;1.27;;;0.35;;
40471;SDS011;26174;42.908;23.800;2023-06-14T02:28:57;0.28;;;0.28;;
40471;SDS011;26174;42.908;23.800;2023-06-14T02:31:23;1.10;;;0.70;;
40471;SDS011;26174;42.908;23.800;2023-06-14T02:33:49;3.50;;;1.02;;
40471;SDS011;26174;42.908;23.800;2023-06-14T02:36:15;4.13;;;1.42;;
40471;SDS011;26174;42.908;23.800;2023-06-14T02:38:40;0.43;;;0.38;;
40471;SDS011;26174;42.908;23.800;2023-06-14T02:41:06;1.13;;;0.17;;
40471;SDS011;26174;42.908;23.800;2023-06-14T02:43:31;1.55;;;1.20;;
40471;SDS011;26174;42.908;23.800;2023-06-14T02:45:57;2.67;;;0.52;;
40471;SDS011;26174;42.908;23.800;2023-06-14T02:48:22;1.13;;;0.73;;
40471;SDS011;26174;42.908;23.800;2023-06-14T02:50:48;0.70;;;0.70;;
40471;SDS011;26174;42.908;23.800;2023-06-14T02:53:13;0.05;;;0.05;;
40471;SDS011;26174;42.908;23.800;2023-06-14T02:55:39;0.50;;;0.40;;
40471;SDS011;26174;42.908;23.800;2023-06-14T02:58:05;2.92;;;1.35;;
40471;SDS011;26174;42.908;23.800;2023-06-14T03:00:31;0.38;;;0.38;;
40471;SDS011;26174;42.908;23.800;2023-06-14T03:02:56;1.00;;;0.88;;
40471;SDS011;26174;42.908;23.800;2023-06-14T03:05:22;2.40;;;0.35;;
40471;SDS011;26174;42.908;23.800;2023-06-14T03:07:49;2.45;;;0.73;;
40471;SDS011;26174;42.908;23.800;2023-06-14T03:10:15;0.20;;;0.20;;
40471;SDS011;26174;42.908;23.800;2023-06-14T03:12:41;11.13;;;0.65;;
40471;SDS011;26174;42.908;23.800;2023-06-14T03:15:06;1.77;;;0.65;;
40471;SDS011;26174;42.908;23.800;2023-06-14T03:17:32;0.52;;;0.52;;
40471;SDS011;26174;42.908;23.800;2023-06-14T03:20:00;1.15;;;0.68;;
40471;SDS011;26174;42.908;23.800;2023-06-14T03:22:26;0.38;;;0.38;;
40471;SDS011;26174;42.908;23.800;2023-06-14T03:24:52;1.23;;;0.70;;
40471;SDS011;26174;42.908;23.800;2023-06-14T03:27:19;0.35;;;0.30;;
40471;SDS011;26174;42.908;23.800;2023-06-14T03:29:44;0.82;;;0.80;;
40471;SDS011;26174;42.908;23.800;2023-06-14T03:32:10;0.75;;;0.68;;
40471;SDS011;26174;42.908;23.800;2023-06-14T03:34:35;2.05;;;1.50;;
40471;SDS011;26174;42.908;23.800;2023-06-14T03:37:03;1.40;;;0.70;;
40471;SDS011;26174;42.908;23.800;2023-06-14T03:39:29;0.93;;;0.50;;
40471;SDS011;26174;42.908;23.800;2023-06-14T03:41:54;4.28;;;0.55;;
40471;SDS011;26174;42.908;23.800;2023-06-14T03:44:20;0.50;;;0.50;;
40471;SDS011;26174;42.908;23.800;2023-06-14T03:46:46;0.73;;;0.73;;
40471;SDS011;26174;42.908;23.800;2023-06-14T03:49:12;1.10;;;0.60;;
40471;SDS011;26174;42.908;23.800;2023-06-14T03:51:37;1.98;;;1.10;;
40471;SDS011;26174;42.908;23.800;2023-06-14T03:54:04;1.30;;;1.20;;
40471;SDS011;26174;42.908;23.800;2023-06-14T03:56:30;1.45;;;1.35;;
40471;SDS011;26174;42.908;23.800;2023-06-14T03:58:56;7.78;;;0.73;;
40471;SDS011;26174;42.908;23.800;2023-06-14T04:01:21;0.43;;;0.43;;
40471;SDS011;26174;42.908;23.800;2023-06-14T04:03:52;0.47;;;0.47;;
40471;SDS011;26174;42.908;23.800;2023-06-14T04:06:17;3.03;;;1.35;;
40471;SDS011;26174;42.908;23.800;2023-06-14T04:08:44;0.63;;;0.50;;
40471;SDS011;26174;42.908;23.800;2023-06-14T04:11:10;0.30;;;0.28;;
40471;SDS011;26174;42.908;23.800;2023-06-14T04:13:36;0.30;;;0.30;;
40471;SDS011;26174;42.908;23.800;2023-06-14T04:16:02;4.85;;;1.25;;
40471;SDS011;26174;42.908;23.800;2023-06-14T04:18:28;0.82;;;0.77;;
40471;SDS011;26174;42.908;23.800;2023-06-14T04:20:54;0.85;;;0.70;;
40471;SDS011;26174;42.908;23.800;2023-06-14T04:23:21;0.20;;;0.20;;
40471;SDS011;26174;42.908;23.800;2023-06-14T04:25:47;0.70;;;0.70;;
40471;SDS011;26174;42.908;23.800;2023-06-14T04:28:14;2.75;;;1.98;;
40471;SDS011;26174;42.908;23.800;2023-06-14T04:30:44;0.80;;;0.80;;
40471;SDS011;26174;42.908;23.800;2023-06-14T04:33:10;0.30;;;0.30;;
40471;SDS011;26174;42.908;23.800;2023-06-14T04:35:36;0.38;;;0.38;;
40471;SDS011;26174;42.908;23.800;2023-06-14T04:38:05;2.25;;;0.73;;
40471;SDS011;26174;42.908;23.800;2023-06-14T04:40:34;0.47;;;0.47;;
40471;SDS011;26174;42.908;23.800;2023-06-14T04:43:07;1.30;;;0.60;;
40471;SDS011;26174;42.908;23.800;2023-06-14T04:45:33;0.88;;;0.82;;
40471;SDS011;26174;42.908;23.800;2023-06-14T04:47:59;1.85;;;0.63;;
40471;SDS011;26174;42.908;23.800;2023-06-14T04:50:25;1.92;;;1.20;;
40471;SDS011;26174;42.908;23.800;2023-06-14T04:52:52;0.93;;;0.93;;
40471;SDS011;26174;42.908;23.800;2023-06-14T04:55:18;5.45;;;2.30;;
40471;SDS011;26174;42.908;23.800;2023-06-14T05:19:35;2.03;;;1.00;;
40471;SDS011;26174;42.908;23.800;2023-06-14T05:22:00;1.00;;;0.63;;
40471;SDS011;26174;42.908;23.800;2023-06-14T05:24:28;0.20;;;0.20;;
40471;SDS011;26174;42.908;23.800;2023-06-14T05:26:55;2.40;;;1.10;;
40471;SDS011;26174;42.908;23.800;2023-06-14T05:29:21;0.25;;;0.25;;
40471;SDS011;26174;42.908;23.800;2023-06-14T05:31:47;1.58;;;1.13;;
40471;SDS011;26174;42.908;23.800;2023-06-14T05:34:12;0.20;;;0.20;;
40471;SDS011;26174;42.908;23.800;2023-06-14T05:36:38;0.20;;;0.20;;
40471;SDS011;26174;42.908;23.800;2023-06-14T05:39:04;0.30;;;0.30;;
40471;SDS011;26174;42.908;23.800;2023-06-14T05:41:30;0.70;;;0.70;;
40471;SDS011;26174;42.908;23.800;2023-06-14T05:43:56;0.20;;;0.20;;
40471;SDS011;26174;42.908;23.800;2023-06-14T05:46:22;0.68;;;0.68;;
40471;SDS011;26174;42.908;23.800;2023-06-14T05:48:54;0.40;;;0.17;;
40471;SDS011;26174;42.908;23.800;2023-06-14T05:51:20;0.55;;;0.30;;
40471;SDS011;26174;42.908;23.800;2023-06-14T05:53:46;0.90;;;0.85;;
40471;SDS011;26174;42.908;23.800;2023-06-14T05:56:12;0.35;;;0.35;;
40471;SDS011;26174;42.908;23.800;2023-06-14T05:58:38;1.27;;;0.73;;
40471;SDS011;26174;42.908;23.800;2023-06-14T06:01:04;1.75;;;0.82;;
40471;SDS011;26174;42.908;23.800;2023-06-14T06:03:30;0.60;;;0.60;;
40471;SDS011;26174;42.908;23.800;2023-06-14T06:05:55;0.28;;;0.22;;
40471;SDS011;26174;42.908;23.800;2023-06-14T06:08:21;1.02;;;0.85;;
40471;SDS011;26174;42.908;23.800;2023-06-14T06:10:46;0.20;;;0.17;;
40471;SDS011;26174;42.908;23.800;2023-06-14T06:13:12;0.20;;;0.20;;
40471;SDS011;26174;42.908;23.800;2023-06-14T06:15:37;1.77;;;0.50;;
40471;SDS011;26174;42.908;23.800;2023-06-14T06:18:03;0.75;;;0.55;;
40471;SDS011;26174;42.908;23.800;2023-06-14T06:20:29;0.10;;;0.10;;
40471;SDS011;26174;42.908;23.800;2023-06-14T06:22:57;0.25;;;0.17;;
40471;SDS011;26174;42.908;23.800;2023-06-14T06:25:28;0.15;;;0.05;;
40471;SDS011;26174;42.908;23.800;2023-06-14T06:27:54;1.05;;;0.75;;
40471;SDS011;26174;42.908;23.800;2023-06-14T06:30:21;0.00;;;0.00;;
40471;SDS011;26174;42.908;23.800;2023-06-14T06:32:47;0.43;;;0.40;;
40471;SDS011;26174;42.908;23.800;2023-06-14T06:35:12;0.20;;;0.15;;
40471;SDS011;26174;42.908;23.800;2023-06-14T06:37:39;0.35;;;0.35;;
40471;SDS011;26174;42.908;23.800;2023-06-14T06:40:05;0.10;;;0.10;;
40471;SDS011;26174;42.908;23.800;2023-06-14T06:42:31;0.10;;;0.10;;
40471;SDS011;26174;42.908;23.800;2023-06-14T06:45:02;0.40;;;0.40;;
40471;SDS011;26174;42.908;23.800;2023-06-14T06:47:28;1.90;;;0.70;;
40471;SDS011;26174;42.908;23.800;2023-06-14T06:49:53;0.40;;;0.32;;
40471;SDS011;26174;42.908;23.800;2023-06-14T06:52:22;0.77;;;0.57;;
40471;SDS011;26174;42.908;23.800;2023-06-14T06:54:48;1.92;;;0.73;;
40471;SDS011;26174;42.908;23.800;2023-06-14T06:57:14;0.43;;;0.43;;
40471;SDS011;26174;42.908;23.800;2023-06-14T06:59:40;0.22;;;0.22;;
40471;SDS011;26174;42.908;23.800;2023-06-14T07:02:05;0.30;;;0.30;;
40471;SDS011;26174;42.908;23.800;2023-06-14T07:04:31;0.30;;;0.20;;
40471;SDS011;26174;42.908;23.800;2023-06-14T07:06:56;0.90;;;0.55;;
40471;SDS011;26174;42.908;23.800;2023-06-14T07:09:22;0.15;;;0.15;;
40471;SDS011;26174;42.908;23.800;2023-06-14T07:11:49;0.47;;;0.30;;
40471;SDS011;26174;42.908;23.800;2023-06-14T07:14:15;0.80;;;0.68;;
40471;SDS011;26174;42.908;23.800;2023-06-14T07:16:41;0.10;;;0.10;;
40471;SDS011;26174;42.908;23.800;2023-06-14T07:19:06;0.63;;;0.50;;
40471;SDS011;26174;42.908;23.800;2023-06-14T07:21:32;0.32;;;0.28;;
40471;SDS011;26174;42.908;23.800;2023-06-14T07:23:57;0.15;;;0.10;;
40471;SDS011;26174;42.908;23.800;2023-06-14T07:26:23;5.22;;;0.65;;
40471;SDS011;26174;42.908;23.800;2023-06-14T07:28:49;0.30;;;0.30;;
40471;SDS011;26174;42.908;23.800;2023-06-14T07:31:15;0.17;;;0.17;;
40471;SDS011;26174;42.908;23.800;2023-06-14T07:33:41;0.70;;;0.40;;
40471;SDS011;26174;42.908;23.800;2023-06-14T07:36:07;2.00;;;0.85;;
40471;SDS011;26174;42.908;23.800;2023-06-14T07:38:33;0.20;;;0.20;;
40471;SDS011;26174;42.908;23.800;2023-06-14T07:40:59;0.10;;;0.10;;
40471;SDS011;26174;42.908;23.800;2023-06-14T07:43:25;0.10;;;0.10;;
40471;SDS011;26174;42.908;23.800;2023-06-14T07:45:50;0.28;;;0.28;;
40471;SDS011;26174;42.908;23.800;2023-06-14T07:48:16;0.30;;;0.20;;
40471;SDS011;26174;42.908;23.800;2023-06-14T07:50:44;0.20;;;0.20;;
40471;SDS011;26174;42.908;23.800;2023-06-14T07:53:10;0.30;;;0.30;;
40471;SDS011;26174;42.908;23.800;2023-06-14T07:55:35;0.43;;;0.43;;
40471;SDS011;26174;42.908;23.800;2023-06-14T07:58:05;2.72;;;0.68;;
40471;SDS011;26174;42.908;23.800;2023-06-14T08:00:31;0.32;;;0.32;;
40471;SDS011;26174;42.908;23.800;2023-06-14T08:02:57;0.63;;;0.35;;
40471;SDS011;26174;42.908;23.800;2023-06-14T08:05:24;1.25;;;0.63;;
40471;SDS011;26174;42.908;23.800;2023-06-14T08:07:51;0.13;;;0.13;;
40471;SDS011;26174;42.908;23.800;2023-06-14T08:10:16;0.68;;;0.38;;
40471;SDS011;26174;42.908;23.800;2023-06-14T08:12:42;0.63;;;0.63;;
40471;SDS011;26174;42.908;23.800;2023-06-14T08:15:08;0.30;;;0.30;;
40471;SDS011;26174;42.908;23.800;2023-06-14T08:17:34;1.45;;;0.85;;
40471;SDS011;26174;42.908;23.800;2023-06-14T08:19:59;4.28;;;0.93;;
40471;SDS011;26174;42.908;23.800;2023-06-14T08:22:25;0.30;;;0.30;;
40471;SDS011;26174;42.908;23.800;2023-06-14T08:24:52;0.73;;;0.45;;
40471;SDS011;26174;42.908;23.800;2023-06-14T08:27:19;0.28;;;0.28;;
40471;SDS011;26174;42.908;23.800;2023-06-14T08:29:45;0.15;;;0.15;;
40471;SDS011;26174;42.908;23.800;2023-06-14T08:32:11;0.20;;;0.20;;
40471;SDS011;26174;42.908;23.800;2023-06-14T08:34:37;1.55;;;0.85;;
40471;SDS011;26174;42.908;23.800;2023-06-14T08:37:02;0.35;;;0.35;;
40471;SDS011;26174;42.908;23.800;2023-06-14T08:39:28;0.28;;;0.28;;
40471;SDS011;26174;42.908;23.800;2023-06-14T08:41:54;0.32;;;0.32;;
40471;SDS011;26174;42.908;23.800;2023-06-14T08:44:19;0.38;;;0.38;;
40471;SDS011;26174;42.908;23.800;2023-06-14T08:46:45;0.35;;;0.35;;
40471;SDS011;26174;42.908;23.800;2023-06-14T08:49:12;0.30;;;0.30;;
40471;SDS011;26174;42.908;23.800;2023-06-14T08:51:39;0.35;;;0.35;;
40471;SDS011;26174;42.908;23.800;2023-06-14T08:54:05;0.40;;;0.40;;
40471;SDS011;26174;42.908;23.800;2023-06-14T08:56:31;1.17;;;0.73;;
40471;SDS011;26174;42.908;23.800;2023-06-14T08:58:59;0.70;;;0.63;;
40471;SDS011;26174;42.908;23.800;2023-06-14T09:01:35;0.85;;;0.85;;
40471;SDS011;26174;42.908;23.800;2023-06-14T09:04:01;2.40;;;1.42;;
40471;SDS011;26174;42.908;23.800;2023-06-14T09:06:28;2.28;;;1.33;;
40471;SDS011;26174;42.908;23.800;2023-06-14T09:08:55;0.55;;;0.30;;
40471;SDS011;26174;42.908;23.800;2023-06-14T09:11:23;0.50;;;0.50;;
40471;SDS011;26174;42.908;23.800;2023-06-14T09:13:50;0.43;;;0.43;;
40471;SDS011;26174;42.908;23.800;2023-06-14T09:16:16;0.85;;;0.77;;
40471;SDS011;26174;42.908;23.800;2023-06-14T09:18:45;15.18;;;0.82;;
40471;SDS011;26174;42.908;23.800;2023-06-14T09:21:15;6.88;;;3.80;;
40471;SDS011;26174;42.908;23.800;2023-06-14T09:23:43;5.03;;;3.92;;
40471;SDS011;26174;42.908;23.800;2023-06-14T09:26:13;5.80;;;3.83;;
40471;SDS011;26174;42.908;23.800;2023-06-14T09:28:41;5.95;;;4.18;;
40471;SDS011;26174;42.908;23.800;2023-06-14T09:31:16;16.70;;;5.55;;
40471;SDS011;26174;42.908;23.800;2023-06-14T09:33:43;11.77;;;4.60;;
40471;SDS011;26174;42.908;23.800;2023-06-14T09:36:16;10.00;;;5.25;;
40471;SDS011;26174;42.908;23.800;2023-06-14T09:44:17;5.20;;;4.20;;
40471;SDS011;26174;42.908;23.800;2023-06-14T09:46:43;6.72;;;4.20;;
40471;SDS011;26174;42.908;23.800;2023-06-14T09:49:09;9.73;;;4.05;;
40471;SDS011;26174;42.908;23.800;2023-06-14T09:51:36;5.75;;;3.65;;
40471;SDS011;26174;42.908;23.800;2023-06-14T09:54:24;6.30;;;4.13;;
40471;SDS011;26174;42.908;23.800;2023-06-14T09:56:50;7.00;;;4.85;;
40471;SDS011;26174;42.908;23.800;2023-06-14T09:59:56;9.75;;;6.43;;
40471;SDS011;26174;42.908;23.800;2023-06-14T10:02:26;8.35;;;3.78;;
40471;SDS011;26174;42.908;23.800;2023-06-14T10:07:39;6.07;;;4.20;;
40471;SDS011;26174;42.908;23.800;2023-06-14T10:10:07;7.88;;;4.40;;
40471;SDS011;26174;42.908;23.800;2023-06-14T10:12:33;7.38;;;3.97;;
40471;SDS011;26174;42.908;23.800;2023-06-14T10:14:59;5.95;;;4.28;;
40471;SDS011;26174;42.908;23.800;2023-06-14T10:20:13;7.85;;;4.50;;
40471;SDS011;26174;42.908;23.800;2023-06-14T10:25:42;7.40;;;4.70;;
40471;SDS011;26174;42.908;23.800;2023-06-14T10:28:18;9.85;;;6.50;;
40471;SDS011;26174;42.908;23.800;2023-06-14T10:33:33;10.63;;;5.13;;
40471;SDS011;26174;42.908;23.800;2023-06-14T10:39:09;7.63;;;4.45;;
40471;SDS011;26174;42.908;23.800;2023-06-14T10:41:40;6.13;;;4.40;;
40471;SDS011;26174;42.908;23.800;2023-06-14T10:49:03;5.32;;;4.07;;
40471;SDS011;26174;42.908;23.800;2023-06-14T10:51:29;5.00;;;4.38;;
40471;SDS011;26174;42.908;23.800;2023-06-14T10:53:56;6.45;;;3.85;;
40471;SDS011;26174;42.908;23.800;2023-06-14T10:56:30;5.95;;;4.47;;
40471;SDS011;26174;42.908;23.800;2023-06-14T10:58:59;4.55;;;3.80;;
40471;SDS011;26174;42.908;23.800;2023-06-14T11:01:35;4.40;;;4.00;;
40471;SDS011;26174;42.908;23.800;2023-06-14T11:04:09;4.83;;;3.63;;
40471;SDS011;26174;42.908;23.800;2023-06-14T11:06:45;4.75;;;3.97;;
40471;SDS011;26174;42.908;23.800;2023-06-14T11:09:19;7.32;;;4.22;;
40471;SDS011;26174;42.908;23.800;2023-06-14T11:12:15;8.75;;;3.88;;
40471;SDS011;26174;42.908;23.800;2023-06-14T11:14:42;6.88;;;3.30;;
40471;SDS011;26174;42.908;23.800;2023-06-14T11:17:11;7.53;;;4.63;;
40471;SDS011;26174;42.908;23.800;2023-06-14T11:19:37;4.60;;;4.10;;
40471;SDS011;26174;42.908;23.800;2023-06-14T11:22:03;11.23;;;4.50;;
40471;SDS011;26174;42.908;23.800;2023-06-14T11:24:28;14.10;;;3.92;;
40471;SDS011;26174;42.908;23.800;2023-06-14T11:26:54;4.57;;;3.55;;
40471;SDS011;26174;42.908;23.800;2023-06-14T11:29:21;4.93;;;3.55;;
40471;SDS011;26174;42.908;23.800;2023-06-14T11:31:47;8.40;;;3.30;;
40471;SDS011;26174;42.908;23.800;2023-06-14T11:34:12;5.25;;;3.70;;
40471;SDS011;26174;42.908;23.800;2023-06-14T11:36:39;8.05;;;3.47;;
40471;SDS011;26174;42.908;23.800;2023-06-14T11:39:05;3.88;;;3.17;;
40471;SDS011;26174;42.908;23.800;2023-06-14T11:44:09;3.80;;;3.25;;
40471;SDS011;26174;42.908;23.800;2023-06-14T11:46:35;5.85;;;3.60;;
40471;SDS011;26174;42.908;23.800;2023-06-14T11:49:01;4.53;;;3.20;;
40471;SDS011;26174;42.908;23.800;2023-06-14T11:51:32;8.13;;;4.15;;
40471;SDS011;26174;42.908;23.800;2023-06-14T11:53:58;5.28;;;3.90;;
40471;SDS011;26174;42.908;23.800;2023-06-14T11:56:24;9.13;;;3.88;;
40471;SDS011;26174;42.908;23.800;2023-06-14T11:58:50;7.47;;;4.10;;
40471;SDS011;26174;42.908;23.800;2023-06-14T12:01:17;6.35;;;3.80;;
40471;SDS011;26174;42.908;23.800;2023-06-14T12:03:47;8.32;;;4.30;;
40471;SDS011;26174;42.908;23.800;2023-06-14T12:06:13;8.32;;;4.40;;
40471;SDS011;26174;42.908;23.800;2023-06-14T12:08:40;9.63;;;4.20;;
40471;SDS011;26174;42.908;23.800;2023-06-14T12:11:11;8.60;;;3.97;;
40471;SDS011;26174;42.908;23.800;2023-06-14T12:13:41;8.40;;;3.30;;
40471;SDS011;26174;42.908;23.800;2023-06-14T12:16:11;4.55;;;3.60;;
40471;SDS011;26174;42.908;23.800;2023-06-14T12:53:09;8.93;;;5.03;;
40471;SDS011;26174;42.908;23.800;2023-06-14T12:55:35;12.93;;;7.32;;
40471;SDS011;26174;42.908;23.800;2023-06-14T12:58:01;7.15;;;4.75;;
40471;SDS011;26174;42.908;23.800;2023-06-14T13:00:27;9.35;;;4.60;;
40471;SDS011;26174;42.908;23.800;2023-06-14T13:02:52;7.82;;;4.68;;
40471;SDS011;26174;42.908;23.800;2023-06-14T13:05:18;7.78;;;4.15;;
40471;SDS011;26174;42.908;23.800;2023-06-14T13:07:43;7.88;;;4.90;;
40471;SDS011;26174;42.908;23.800;2023-06-14T13:10:10;8.90;;;3.97;;
40471;SDS011;26174;42.908;23.800;2023-06-14T13:12:35;7.10;;;4.57;;
40471;SDS011;26174;42.908;23.800;2023-06-14T13:15:01;7.13;;;4.90;;
40471;SDS011;26174;42.908;23.800;2023-06-14T13:17:26;8.60;;;5.50;;
40471;SDS011;26174;42.908;23.800;2023-06-14T13:19:52;6.90;;;5.50;;
40471;SDS011;26174;42.908;23.800;2023-06-14T13:22:18;9.73;;;5.68;;
40471;SDS011;26174;42.908;23.800;2023-06-14T13:24:43;7.88;;;5.43;;
40471;SDS011;26174;42.908;23.800;2023-06-14T13:27:09;6.22;;;4.47;;
40471;SDS011;26174;42.908;23.800;2023-06-14T13:29:35;8.35;;;5.00;;
40471;SDS011;26174;42.908;23.800;2023-06-14T13:32:02;8.30;;;5.38;;
40471;SDS011;26174;42.908;23.800;2023-06-14T13:34:28;8.13;;;5.15;;
40471;SDS011;26174;42.908;23.800;2023-06-14T13:36:53;12.98;;;5.50;;
40471;SDS011;26174;42.908;23.800;2023-06-14T13:39:19;7.65;;;5.25;;
40471;SDS011;26174;42.908;23.800;2023-06-14T13:41:44;8.48;;;4.95;;
40471;SDS011;26174;42.908;23.800;2023-06-14T13:44:10;9.55;;;6.40;;
40471;SDS011;26174;42.908;23.800;2023-06-14T13:46:40;5.88;;;4.97;;
40471;SDS011;26174;42.908;23.800;2023-06-14T13:49:07;6.32;;;5.47;;
40471;SDS011;26174;42.908;23.800;2023-06-14T13:51:33;7.43;;;5.50;;
40471;SDS011;26174;42.908;23.800;2023-06-14T13:54:00;13.85;;;8.93;;
40471;SDS011;26174;42.908;23.800;2023-06-14T13:56:26;10.95;;;5.40;;
40471;SDS011;26174;42.908;23.800;2023-06-14T13:58:51;11.15;;;6.00;;
40471;SDS011;26174;42.908;23.800;2023-06-14T14:01:17;10.05;;;5.55;;
40471;SDS011;26174;42.908;23.800;2023-06-14T14:03:48;6.57;;;4.63;;
40471;SDS011;26174;42.908;23.800;2023-06-14T14:06:15;12.40;;;5.82;;
40471;SDS011;26174;42.908;23.800;2023-06-14T14:08:41;11.68;;;6.18;;
40471;SDS011;26174;42.908;23.800;2023-06-14T14:11:07;15.68;;;5.70;;
40471;SDS011;26174;42.908;23.800;2023-06-14T14:13:34;13.50;;;5.30;;
40471;SDS011;26174;42.908;23.800;2023-06-14T14:16:01;9.27;;;5.40;;
40471;SDS011;26174;42.908;23.800;2023-06-14T14:18:28;6.78;;;5.07;;
40471;SDS011;26174;42.908;23.800;2023-06-14T14:20:53;7.95;;;5.97;;
40471;SDS011;26174;42.908;23.800;2023-06-14T14:23:19;7.95;;;5.38;;
40471;SDS011;26174;42.908;23.800;2023-06-14T14:25:45;11.80;;;5.63;;
40471;SDS011;26174;42.908;23.800;2023-06-14T14:28:11;9.27;;;5.80;;
40471;SDS011;26174;42.908;23.800;2023-06-14T14:30:37;15.98;;;7.03;;
40471;SDS011;26174;42.908;23.800;2023-06-14T14:33:04;27.95;;;18.20;;
40471;SDS011;26174;42.908;23.800;2023-06-14T14:35:30;12.27;;;5.80;;
40471;SDS011;26174;42.908;23.800;2023-06-14T14:37:56;13.20;;;5.57;;
40471;SDS011;26174;42.908;23.800;2023-06-14T14:40:25;12.60;;;5.95;;
40471;SDS011;26174;42.908;23.800;2023-06-14T14:42:50;13.10;;;6.00;;
40471;SDS011;26174;42.908;23.800;2023-06-14T14:45:16;13.68;;;5.88;;
40471;SDS011;26174;42.908;23.800;2023-06-14T14:47:41;8.98;;;5.97;;
40471;SDS011;26174;42.908;23.800;2023-06-14T14:50:07;7.05;;;5.18;;
40471;SDS011;26174;42.908;23.800;2023-06-14T14:52:36;10.32;;;6.35;;
40471;SDS011;26174;42.908;23.800;2023-06-14T14:55:01;17.73;;;7.43;;
40471;SDS011;26174;42.908;23.800;2023-06-14T14:57:27;12.90;;;6.55;;
40471;SDS011;26174;42.908;23.800;2023-06-14T14:59:56;21.90;;;10.73;;
40471;SDS011;26174;42.908;23.800;2023-06-14T15:02:21;21.33;;;6.63;;
40471;SDS011;26174;42.908;23.800;2023-06-14T15:04:49;35.08;;;21.90;;
40471;SDS011;26174;42.908;23.800;2023-06-14T15:07:14;17.65;;;10.90;;
40471;SDS011;26174;42.908;23.800;2023-06-14T15:09:40;10.00;;;5.88;;
40471;SDS011;26174;42.908;23.800;2023-06-14T15:12:06;21.25;;;10.85;;
40471;SDS011;26174;42.908;23.800;2023-06-14T15:14:32;10.90;;;5.63;;
40471;SDS011;26174;42.908;23.800;2023-06-14T15:16:58;10.20;;;5.97;;
40471;SDS011;26174;42.908;23.800;2023-06-14T15:19:26;14.45;;;6.68;;
40471;SDS011;26174;42.908;23.800;2023-06-14T15:21:52;11.48;;;7.88;;
40471;SDS011;26174;42.908;23.800;2023-06-14T15:24:17;20.75;;;8.25;;
40471;SDS011;26174;42.908;23.800;2023-06-14T15:26:43;8.40;;;6.03;;
40471;SDS011;26174;42.908;23.800;2023-06-14T15:29:08;12.38;;;5.93;;
40471;SDS011;26174;42.908;23.800;2023-06-14T15:31:34;8.35;;;5.50;;
40471;SDS011;26174;42.908;23.800;2023-06-14T15:34:00;7.15;;;5.18;;
40471;SDS011;26174;42.908;23.800;2023-06-14T15:36:26;9.88;;;6.38;;
40471;SDS011;26174;42.908;23.800;2023-06-14T15:38:51;11.73;;;6.82;;
40471;SDS011;26174;42.908;23.800;2023-06-14T15:41:17;12.57;;;6.47;;
40471;SDS011;26174;42.908;23.800;2023-06-14T15:43:42;8.45;;;5.80;;
40471;SDS011;26174;42.908;23.800;2023-06-14T15:46:08;13.02;;;8.45;;
40471;SDS011;26174;42.908;23.800;2023-06-14T15:48:33;29.52;;;19.23;;
40471;SDS011;26174;42.908;23.800;2023-06-14T15:50:59;12.60;;;7.43;;
40471;SDS011;26174;42.908;23.800;2023-06-14T15:53:24;11.38;;;7.20;;
40471;SDS011;26174;42.908;23.800;2023-06-14T15:55:50;16.90;;;10.40;;
40471;SDS011;26174;42.908;23.800;2023-06-14T15:58:15;14.30;;;7.25;;
40471;SDS011;26174;42.908;23.800;2023-06-14T16:00:41;34.13;;;18.70;;
40471;SDS011;26174;42.908;23.800;2023-06-14T16:03:07;15.27;;;8.93;;